createdAt,value
2022-11-05T03:02:21.577Z,51.156151
2022-11-05T03:03:52.540Z,51.156124
2022-11-05T03:08:15.652Z,51.156124
2022-11-05T03:09:49.980Z,51.156124
2022-11-05T03:12:14.258Z,51.156124
2022-11-05T03:15:42.968Z,51.156124
2022-11-05T03:35:43.183Z,51.156021
2022-11-05T03:44:51.088Z,51.156101
2022-11-05T03:48:09.160Z,51.156033
2022-11-05T03:52:47.819Z,51.156033
2022-11-05T03:53:56.547Z,51.156075
2022-11-05T03:56:12.932Z,51.156075
2022-11-05T03:56:51.448Z,51.156075
2022-11-05T04:46:41.866Z,51.156120
2022-11-05T04:48:44.875Z,51.156120
2022-11-05T05:17:26.860Z,51.155769
2022-11-05T05:21:02.510Z,51.156052
2022-11-05T05:22:11.479Z,51.156052
2022-11-05T05:37:01.044Z,51.155445
2022-11-05T05:40:35.934Z,51.155445
2022-11-05T05:44:05.835Z,51.155445
2022-11-05T06:06:42.453Z,51.156204
2022-11-05T06:08:48.313Z,51.156178
2022-11-05T06:09:23.297Z,51.156170
2022-11-05T06:13:08.299Z,51.156136
2022-11-05T06:13:37.147Z,51.156136
2022-11-05T06:15:03.263Z,51.156292
2022-11-05T06:16:42.835Z,51.156273
2022-11-05T06:17:57.769Z,51.156273
2022-11-05T06:20:37.785Z,51.156273
2022-11-05T06:23:58.106Z,51.156273
2022-11-05T06:26:25.107Z,51.156273
2022-11-05T06:36:35.432Z,51.156219
2022-11-05T06:37:29.857Z,51.156166
2022-11-05T06:38:36.704Z,51.156139
2022-11-05T06:39:32.812Z,51.156181
2022-11-05T06:41:05.747Z,51.156189
2022-11-05T06:41:30.871Z,51.156219
2022-11-05T06:42:30.326Z,51.156208
2022-11-05T06:43:34.633Z,51.156219
2022-11-05T06:44:39.299Z,51.156189
2022-11-05T06:45:41.189Z,51.156216
2022-11-05T06:55:14.417Z,51.156368
2022-11-05T06:56:10.981Z,51.156361
2022-11-05T06:57:26.923Z,51.156540
2022-11-05T07:05:20.361Z,51.156116
2022-11-05T07:06:24.978Z,51.156143
2022-11-05T07:07:24.977Z,51.156105
2022-11-05T07:08:19.098Z,51.156094
2022-11-05T07:09:21.838Z,51.156109
2022-11-05T07:10:33.900Z,51.156078
2022-11-05T07:11:19.679Z,51.156109
2022-11-05T07:12:42.152Z,51.156082
2022-11-05T07:13:23.626Z,51.156055
2022-11-05T07:14:22.078Z,51.156090
2022-11-05T07:16:16.754Z,51.156082
2022-11-05T07:18:14.215Z,51.156082
2022-11-05T07:18:33.029Z,51.156082
2022-11-05T07:19:49.146Z,51.156082
2022-11-05T07:20:34.587Z,51.156101
2022-11-05T07:21:22.083Z,51.156094
2022-11-05T07:22:22.452Z,51.156105
2022-11-05T07:23:24.386Z,51.156097
2022-11-05T07:24:20.639Z,51.156094
2022-11-05T07:25:21.356Z,51.156082
2022-11-05T08:01:35.251Z,51.156094
2022-11-05T08:42:09.882Z,51.156101
2022-11-05T08:43:09.325Z,51.156113
2022-11-05T08:44:09.008Z,51.156097
2022-11-05T08:45:09.231Z,51.156139
2022-11-05T08:59:43.069Z,51.156105
2022-11-05T09:00:41.485Z,51.156113
2022-11-05T09:01:41.488Z,51.156094
2022-11-05T09:02:41.107Z,51.156128
2022-11-05T09:03:40.983Z,51.156143
2022-11-05T09:59:55.961Z,51.156048
2022-11-05T10:00:55.615Z,51.156090
2022-11-05T10:01:55.481Z,51.156063
2022-11-05T10:02:55.409Z,51.156067
2022-11-05T10:03:55.377Z,51.156075
2022-11-05T10:04:55.383Z,51.156090
2022-11-05T10:05:55.465Z,51.156086
2022-11-05T10:06:55.373Z,51.156044
2022-11-05T10:07:55.384Z,51.156052
2022-11-05T10:08:55.370Z,51.156063
2022-11-05T10:09:55.357Z,51.156071
2022-11-05T10:10:55.344Z,51.156086
2022-11-05T10:11:55.321Z,51.156109
2022-11-05T10:12:55.406Z,51.156082
2022-11-05T10:13:55.309Z,51.156090
2022-11-05T10:14:55.230Z,51.156097
2022-11-05T10:15:55.271Z,51.156094
2022-11-05T10:16:55.344Z,51.156105
2022-11-05T10:17:55.188Z,51.156124
2022-11-05T10:18:55.160Z,51.156078
2022-11-05T10:19:55.256Z,51.156113
2022-11-05T10:20:55.299Z,51.156116
2022-11-05T10:22:10.436Z,51.156105
2022-11-05T10:22:57.177Z,51.156116
2022-11-05T10:23:55.110Z,51.156090
2022-11-05T10:24:55.111Z,51.156090
2022-11-05T10:25:55.059Z,51.156090
2022-11-05T10:26:55.131Z,51.156101
2022-11-05T10:27:55.214Z,51.156101
2022-11-05T10:28:55.045Z,51.156078
2022-11-05T10:29:55.139Z,51.156075
2022-11-05T10:30:55.110Z,51.156101
2022-11-05T10:31:55.091Z,51.156124
2022-11-05T10:32:56.066Z,51.156132
2022-11-05T10:33:55.080Z,51.156101
2022-11-05T10:34:55.025Z,51.156071
2022-11-05T10:35:54.992Z,51.156097
2022-11-05T10:36:54.986Z,51.156143
2022-11-05T10:37:55.101Z,51.156105
2022-11-05T10:38:54.968Z,51.156078
2022-11-05T10:39:54.995Z,51.156071
2022-11-05T10:40:54.921Z,51.156090
2022-11-05T10:41:55.139Z,51.156097
2022-11-05T10:42:55.064Z,51.156090
2022-11-05T10:43:54.957Z,51.156109
2022-11-05T10:44:54.966Z,51.156109
2022-11-05T10:45:55.285Z,51.156063
2022-11-05T10:46:54.927Z,51.156105
2022-11-05T10:47:54.977Z,51.156113
2022-11-05T10:48:54.880Z,51.156105
2022-11-05T10:49:54.860Z,51.156105
2022-11-05T10:50:54.923Z,51.156090
2022-11-05T10:51:54.880Z,51.156105
2022-11-05T10:52:54.874Z,51.156105
2022-11-05T10:53:58.850Z,51.156128
2022-11-05T10:54:56.808Z,51.156120
2022-11-05T10:55:54.848Z,51.156116
